createdAt,value
2022-08-20T00:01:02.175Z,100625.72
2022-08-20T00:03:33.356Z,100626.53
2022-08-20T00:06:03.635Z,100620.25
2022-08-20T00:08:32.135Z,100630.50
2022-08-20T00:11:02.586Z,100623.75
2022-08-20T00:13:34.063Z,100626.56
2022-08-20T00:16:02.515Z,100620.56
2022-08-20T00:18:30.815Z,100616.06
2022-08-20T00:20:59.022Z,100630.19
2022-08-20T00:23:26.835Z,100625.28
2022-08-20T00:25:54.943Z,100623.75
2022-08-20T00:28:23.956Z,100629.25
2022-08-20T00:30:51.971Z,100621.28
2022-08-20T00:33:22.277Z,100622.81
2022-08-20T00:35:53.152Z,100622.38
2022-08-20T00:38:21.601Z,100619.59
2022-08-20T00:40:52.140Z,100625.22
2022-08-20T00:43:34.222Z,100625.91
2022-08-20T00:46:06.554Z,100628.09
2022-08-20T00:48:36.446Z,100631.69
2022-08-20T00:51:07.857Z,100630.16
2022-08-20T00:53:36.986Z,100636.00
2022-08-20T00:56:07.077Z,100629.34
2022-08-20T00:58:38.253Z,100628.19
2022-08-20T01:01:07.700Z,100627.53
2022-08-20T01:03:35.613Z,100628.25
2022-08-20T01:06:03.420Z,100631.84
2022-08-20T01:08:31.247Z,100630.66
2022-08-20T01:11:15.751Z,100636.88
2022-08-20T01:13:46.764Z,100641.41
2022-08-20T01:16:22.077Z,100643.03
2022-08-20T01:18:51.290Z,100640.81
2022-08-20T01:21:23.771Z,100641.56
2022-08-20T01:23:57.299Z,100652.09
2022-08-20T01:26:30.121Z,100656.47
2022-08-20T01:29:01.724Z,100662.47
2022-08-20T01:31:31.432Z,100665.63
2022-08-20T01:34:02.043Z,100673.16
2022-08-20T01:36:32.978Z,100665.44
2022-08-20T01:39:01.964Z,100673.97
2022-08-20T01:41:56.891Z,100673.81
2022-08-20T01:44:26.290Z,100670.44
2022-08-20T01:46:57.595Z,100666.84
2022-08-20T01:49:35.113Z,100667.94
2022-08-20T01:52:09.250Z,100671.78
2022-08-20T01:54:37.250Z,100676.25
2022-08-20T01:57:11.846Z,100664.97
2022-08-20T01:59:39.867Z,100676.28
2022-08-20T02:02:08.543Z,100669.94
2022-08-20T02:04:36.783Z,100670.66
2022-08-20T02:07:06.990Z,100669.94
2022-08-20T02:09:39.241Z,100673.50
2022-08-20T02:12:10.914Z,100673.50
2022-08-20T02:14:43.132Z,100672.63
2022-08-20T02:17:12.251Z,100679.59
2022-08-20T02:19:43.146Z,100671.56
2022-08-20T02:22:21.256Z,100678.50
2022-08-20T02:24:49.243Z,100678.41
2022-08-20T02:27:18.886Z,100676.44
2022-08-20T02:29:47.199Z,100674.38
2022-08-20T02:32:24.375Z,100678.66
2022-08-20T02:35:03.754Z,100678.13
2022-08-20T02:37:31.997Z,100668.81
2022-08-20T02:39:59.974Z,100669.34
2022-08-20T02:42:29.155Z,100667.94
2022-08-20T02:44:58.665Z,100675.69
2022-08-20T02:47:27.680Z,100666.56
2022-08-20T02:49:56.366Z,100664.03
2022-08-20T02:52:24.111Z,100667.19
2022-08-20T02:54:52.202Z,100672.53
2022-08-20T02:57:21.411Z,100674.59
2022-08-20T02:59:52.330Z,100667.16
2022-08-20T03:02:20.134Z,100671.34
2022-08-20T03:04:47.644Z,100680.09
2022-08-20T03:07:15.457Z,100678.03
2022-08-20T03:09:42.994Z,100668.31
2022-08-20T03:12:10.976Z,100667.31
2022-08-20T03:14:39.191Z,100665.59
2022-08-20T03:17:08.229Z,100669.97
2022-08-20T03:19:36.001Z,100670.06
2022-08-20T03:22:03.722Z,100674.72
2022-08-20T03:24:31.544Z,100663.38
2022-08-20T03:26:59.844Z,100668.91
2022-08-20T03:29:27.552Z,100673.06
2022-08-20T03:31:55.067Z,100672.94
2022-08-20T03:34:24.174Z,100670.31
2022-08-20T03:36:51.946Z,100669.75
2022-08-20T03:39:19.504Z,100670.72
2022-08-20T03:41:47.606Z,100671.50
2022-08-20T03:44:15.421Z,100665.28
2022-08-20T03:46:43.051Z,100660.34
2022-08-20T03:49:11.458Z,100664.19
2022-08-20T03:51:57.475Z,100667.25
2022-08-20T03:54:29.127Z,100661.25
2022-08-20T03:57:00.209Z,100665.09
2022-08-20T03:59:28.045Z,100654.91
2022-08-20T04:01:56.232Z,100662.78
2022-08-20T04:04:24.001Z,100666.13
2022-08-20T04:06:52.947Z,100659.19
2022-08-20T04:09:20.628Z,100659.75
2022-08-20T04:11:48.238Z,100669.03
2022-08-20T04:14:18.430Z,100659.31
2022-08-20T04:16:48.917Z,100667.13
2022-08-20T04:19:17.180Z,100664.63
2022-08-20T04:21:48.505Z,100669.81
2022-08-20T04:24:22.614Z,100667.06
2022-08-20T04:26:59.705Z,100670.38
2022-08-20T04:29:32.297Z,100668.22
2022-08-20T04:32:03.336Z,100680.28
2022-08-20T04:34:38.329Z,100674.56
2022-08-20T04:37:16.782Z,100680.91
2022-08-20T04:40:06.649Z,100686.09
2022-08-20T04:42:35.575Z,100691.75
2022-08-20T04:45:03.566Z,100699.59
2022-08-20T04:47:34.964Z,100706.66
2022-08-20T04:50:03.022Z,100705.00
2022-08-20T04:52:32.930Z,100706.13
2022-08-20T04:55:02.128Z,100720.63
2022-08-20T04:57:29.844Z,100723.25
2022-08-20T04:59:59.505Z,100727.72
2022-08-20T05:02:27.364Z,100726.97
2022-08-20T05:04:54.980Z,100731.78
2022-08-20T05:07:22.785Z,100733.72
2022-08-20T05:09:50.338Z,100729.78
2022-08-20T05:12:19.711Z,100730.19
2022-08-20T05:14:47.816Z,100731.16
2022-08-20T05:17:17.727Z,100725.19
2022-08-20T05:19:46.545Z,100728.31
2022-08-20T05:22:14.410Z,100728.31
2022-08-20T05:24:42.164Z,100735.75
2022-08-20T05:27:09.694Z,100731.59
2022-08-20T05:29:54.789Z,100734.00
2022-08-20T05:32:23.102Z,100732.72
2022-08-20T05:34:50.887Z,100728.34
2022-08-20T05:37:18.681Z,100744.44
2022-08-20T05:39:47.168Z,100739.13
2022-08-20T05:42:14.949Z,100736.78
2022-08-20T05:44:42.546Z,100738.00
2022-08-20T05:47:11.635Z,100725.66
2022-08-20T05:49:40.084Z,100730.13
2022-08-20T05:52:07.783Z,100724.25
2022-08-20T05:54:37.895Z,100732.28
2022-08-20T05:57:06.019Z,100737.44
2022-08-20T05:59:36.806Z,100736.97
2022-08-20T06:02:25.424Z,100738.56
2022-08-20T06:04:56.236Z,100740.88
2022-08-20T06:07:24.647Z,100735.97
2022-08-20T06:09:52.335Z,100750.47
2022-08-20T06:12:19.967Z,100738.63
2022-08-20T06:14:48.378Z,100734.69
2022-08-20T06:17:19.396Z,100740.88
2022-08-20T06:19:50.100Z,100737.84
2022-08-20T06:22:26.465Z,100736.47
2022-08-20T06:24:55.558Z,100734.81
2022-08-20T06:27:23.638Z,100739.69
2022-08-20T06:29:52.245Z,100734.75
2022-08-20T06:32:28.876Z,100739.09
2022-08-20T06:35:03.733Z,100740.31
2022-08-20T06:37:36.518Z,100733.38
2022-08-20T06:40:09.538Z,100742.34
2022-08-20T06:42:37.365Z,100740.88
2022-08-20T06:45:05.869Z,100743.03
2022-08-20T06:47:34.921Z,100749.63
2022-08-20T06:50:02.786Z,100743.13
2022-08-20T06:52:51.598Z,100742.47
2022-08-20T06:55:19.760Z,100742.59
2022-08-20T06:57:48.247Z,100741.03
2022-08-20T07:00:18.880Z,100745.19
2022-08-20T07:02:48.105Z,100749.50
2022-08-20T07:05:16.987Z,100750.66
2022-08-20T07:07:46.166Z,100746.41
2022-08-20T07:10:15.529Z,100750.88
2022-08-20T07:12:46.736Z,100753.91
2022-08-20T07:15:15.450Z,100757.66
2022-08-20T07:17:43.975Z,100759.06
2022-08-20T07:20:15.333Z,100766.06
2022-08-20T07:22:43.592Z,100766.38
2022-08-20T07:25:15.405Z,100762.00
2022-08-20T07:27:45.296Z,100771.66
2022-08-20T07:30:33.709Z,100761.06
2022-08-20T07:33:21.623Z,100780.19
2022-08-20T07:35:50.028Z,100773.56
2022-08-20T07:38:23.946Z,100763.31
2022-08-20T07:40:52.953Z,100767.53
2022-08-20T07:43:23.126Z,100760.91
2022-08-20T07:45:52.227Z,100770.03
2022-08-20T07:48:27.988Z,100765.13
2022-08-20T07:51:00.800Z,100770.22
2022-08-20T07:53:32.374Z,100767.66
2022-08-20T07:56:03.425Z,100767.44
2022-08-20T07:58:33.430Z,100769.69
2022-08-20T08:01:01.682Z,100766.13
2022-08-20T08:03:39.898Z,100770.59
2022-08-20T08:07:08.887Z,100776.44
2022-08-20T08:09:37.181Z,100772.84
2022-08-20T08:12:05.593Z,100778.75
2022-08-20T08:14:35.703Z,100771.59
2022-08-20T08:17:05.747Z,100776.53
2022-08-20T08:19:38.862Z,100781.28
2022-08-20T08:22:11.435Z,100777.59
2022-08-20T08:24:39.446Z,100775.75
2022-08-20T08:27:08.158Z,100774.13
2022-08-20T08:29:37.485Z,100773.41
2022-08-20T08:32:07.382Z,100777.50
2022-08-20T08:34:37.391Z,100773.56
2022-08-20T08:37:05.872Z,100770.69
2022-08-20T08:39:35.038Z,100778.16
2022-08-20T08:42:22.025Z,100772.28
2022-08-20T08:44:51.298Z,100777.47
2022-08-20T08:47:25.155Z,100772.22
2022-08-20T08:49:53.063Z,100771.22
2022-08-20T08:52:24.867Z,100772.06
2022-08-20T08:54:57.978Z,100765.97
2022-08-20T08:57:26.204Z,100764.97
2022-08-20T09:00:03.950Z,100764.53
2022-08-20T09:02:33.969Z,100762.44
2022-08-20T09:05:05.125Z,100765.31
2022-08-20T09:07:34.635Z,100771.97
2022-08-20T09:10:03.245Z,100773.28
2022-08-20T09:12:30.941Z,100765.66
2022-08-20T09:15:00.059Z,100780.19
2022-08-20T09:17:27.753Z,100770.56
2022-08-20T09:19:55.432Z,100764.88
2022-08-20T09:22:25.921Z,100770.38
2022-08-20T09:24:53.710Z,100768.50
2022-08-20T09:27:22.348Z,100768.31
2022-08-20T09:29:50.232Z,100784.72
2022-08-20T09:32:22.845Z,100783.75
2022-08-20T09:34:56.059Z,100780.38
2022-08-20T09:37:25.290Z,100781.94
2022-08-20T09:39:53.228Z,100787.97
2022-08-20T09:42:25.004Z,100784.25
2022-08-20T09:44:53.016Z,100786.84
2022-08-20T09:47:22.409Z,100784.53
2022-08-20T09:49:50.121Z,100780.91
2022-08-20T09:52:22.832Z,100783.69
2022-08-20T09:54:51.842Z,100783.25
2022-08-20T09:57:20.253Z,100772.78
2022-08-20T09:59:52.866Z,100772.09
2022-08-20T10:02:21.986Z,100778.22
2022-08-20T10:04:49.786Z,100773.25
2022-08-20T10:07:17.605Z,100777.50
2022-08-20T10:09:45.508Z,100781.88
2022-08-20T10:12:13.425Z,100780.81
2022-08-20T10:14:41.231Z,100787.25
2022-08-20T10:17:09.054Z,100780.81
2022-08-20T10:19:38.336Z,100788.13
2022-08-20T10:22:06.788Z,100785.81
2022-08-20T10:24:35.077Z,100780.81
2022-08-20T10:27:03.687Z,100784.09
2022-08-20T10:29:32.004Z,100781.28
2022-08-20T10:32:12.041Z,100781.66
2022-08-20T10:34:42.239Z,100789.13
2022-08-20T10:37:11.035Z,100775.59
2022-08-20T10:39:38.836Z,100777.56
2022-08-20T10:42:06.994Z,100787.06
2022-08-20T10:44:34.767Z,100790.03
2022-08-20T10:47:14.785Z,100787.66
2022-08-20T10:49:43.986Z,100788.28
2022-08-20T10:52:11.996Z,100788.38
2022-08-20T10:54:42.112Z,100787.84
2022-08-20T10:57:13.925Z,100793.75
2022-08-20T10:59:42.816Z,100791.81
2022-08-20T11:02:10.712Z,100790.53
2022-08-20T11:04:38.463Z,100798.63
2022-08-20T11:07:18.562Z,100801.31
2022-08-20T11:09:48.080Z,100790.97
2022-08-20T11:12:16.191Z,100788.66
2022-08-20T11:14:44.064Z,100788.78
2022-08-20T11:17:12.604Z,100788.53
2022-08-20T11:19:41.719Z,100793.75
2022-08-20T11:22:09.912Z,100794.19
2022-08-20T11:24:39.637Z,100794.00
2022-08-20T11:27:08.752Z,100794.09
2022-08-20T11:29:37.007Z,100796.28
2022-08-20T11:32:05.717Z,100796.25
2022-08-20T11:34:34.890Z,100804.78
2022-08-20T11:37:02.795Z,100793.19
2022-08-20T11:39:30.707Z,100800.31
2022-08-20T11:41:59.823Z,100804.00
2022-08-20T11:44:27.625Z,100808.69
2022-08-20T11:46:58.142Z,100807.06
2022-08-20T11:49:25.987Z,100801.78
2022-08-20T11:51:53.759Z,100805.25
2022-08-20T11:54:21.574Z,100799.16
2022-08-20T11:56:49.778Z,100803.69
2022-08-20T11:59:19.089Z,100805.00
2022-08-20T12:02:02.243Z,100809.94
2022-08-20T12:04:33.517Z,100795.81
2022-08-20T12:07:09.259Z,100801.50
2022-08-20T12:09:37.037Z,100785.31
2022-08-20T12:12:09.859Z,100790.38
2022-08-20T12:14:39.359Z,100796.78
2022-08-20T12:17:11.081Z,100803.34
2022-08-20T12:19:39.985Z,100805.25
2022-08-20T12:22:20.387Z,100799.47
2022-08-20T12:24:52.904Z,100803.22
2022-08-20T12:27:23.413Z,100797.16
2022-08-20T12:29:54.222Z,100801.19
2022-08-20T12:32:22.058Z,100802.81
2022-08-20T12:34:50.444Z,100793.88
2022-08-20T12:37:20.655Z,100805.88
2022-08-20T12:39:51.493Z,100804.25
2022-08-20T12:42:19.979Z,100813.63
2022-08-20T12:44:48.499Z,100809.25
2022-08-20T12:47:20.158Z,100802.03
2022-08-20T12:49:51.522Z,100802.13
2022-08-20T12:52:20.922Z,100809.63
2022-08-20T12:54:49.447Z,100803.06
2022-08-20T12:57:18.047Z,100802.84
2022-08-20T12:59:45.854Z,100812.13
2022-08-20T13:02:14.280Z,100803.88
2022-08-20T13:04:48.177Z,100813.19
2022-08-20T13:07:16.791Z,100808.22
2022-08-20T13:09:45.497Z,100806.69
2022-08-20T13:12:14.209Z,100803.59
2022-08-20T13:14:43.027Z,100816.50
2022-08-20T13:17:12.250Z,100816.97
2022-08-20T13:19:40.740Z,100815.09
2022-08-20T13:22:10.951Z,100799.47
2022-08-20T13:24:39.086Z,100806.63
2022-08-20T13:27:08.379Z,100804.09
2022-08-20T13:29:38.884Z,100800.41
2022-08-20T13:32:07.043Z,100791.34
2022-08-20T13:34:34.806Z,100790.72
2022-08-20T13:37:02.619Z,100788.06
2022-08-20T13:39:31.733Z,100786.91
2022-08-20T13:41:59.551Z,100791.38
2022-08-20T13:44:27.250Z,100786.00
2022-08-20T13:47:00.660Z,100792.97
2022-08-20T13:49:34.389Z,100787.69
2022-08-20T13:52:02.096Z,100795.78
2022-08-20T13:54:32.499Z,100777.19
2022-08-20T13:57:06.806Z,100788.94
2022-08-20T13:59:37.517Z,100791.19
2022-08-20T14:02:07.396Z,100787.97
2022-08-20T14:04:35.738Z,100787.25
2022-08-20T14:07:11.253Z,100783.97
2022-08-20T14:09:41.378Z,100790.69
2022-08-20T14:12:10.301Z,100780.78
2022-08-20T14:14:38.322Z,100788.88
2022-08-20T14:17:18.161Z,100784.75
2022-08-20T14:19:46.608Z,100780.81
2022-08-20T14:22:17.317Z,100784.53
2022-08-20T14:24:47.127Z,100784.72
2022-08-20T14:27:16.441Z,100780.31
2022-08-20T14:29:46.749Z,100780.84
2022-08-20T14:32:14.662Z,100782.34
2022-08-20T14:34:42.838Z,100784.84
2022-08-20T14:37:12.818Z,100780.38
2022-08-20T14:39:40.682Z,100779.53
2022-08-20T14:42:10.003Z,100784.56
2022-08-20T14:44:38.514Z,100777.78
2022-08-20T14:47:24.929Z,100779.06
2022-08-20T14:49:55.047Z,100787.38
2022-08-20T14:52:24.459Z,100794.00
2022-08-20T14:54:56.387Z,100786.25
2022-08-20T14:57:25.670Z,100785.72
2022-08-20T14:59:53.980Z,100785.00
2022-08-20T15:02:22.189Z,100786.25
2022-08-20T15:04:54.375Z,100783.06
2022-08-20T15:07:26.017Z,100785.94
2022-08-20T15:09:54.444Z,100789.44
2022-08-20T15:12:22.434Z,100788.28
2022-08-20T15:14:51.980Z,100787.44
2022-08-20T15:17:22.865Z,100787.97
2022-08-20T15:19:50.973Z,100780.78
2022-08-20T15:22:19.966Z,100789.09
2022-08-20T15:24:47.805Z,100790.41
2022-08-20T15:27:22.297Z,100787.25
2022-08-20T15:29:52.839Z,100794.56
2022-08-20T15:32:21.633Z,100792.56
2022-08-20T15:34:49.755Z,100788.75
2022-08-20T15:37:20.019Z,100789.56
2022-08-20T15:39:49.417Z,100783.72
2022-08-20T15:42:17.600Z,100784.16
2022-08-20T15:44:45.775Z,100778.72
2022-08-20T15:47:22.291Z,100797.25
2022-08-20T15:49:51.898Z,100792.88
2022-08-20T15:52:19.919Z,100793.91
2022-08-20T15:54:48.494Z,100797.41
2022-08-20T15:57:38.804Z,100788.72
2022-08-20T16:00:13.145Z,100798.91
2022-08-20T16:03:06.855Z,100792.28
2022-08-20T16:05:45.661Z,100797.53
2022-08-20T16:08:32.863Z,100795.50
2022-08-20T16:11:09.594Z,100792.22
2022-08-20T16:13:40.305Z,100795.59
2022-08-20T16:16:15.339Z,100793.25
2022-08-20T16:18:49.024Z,100791.25
2022-08-20T16:21:20.136Z,100790.88
2022-08-20T16:23:47.955Z,100794.94
2022-08-20T16:26:29.096Z,100794.13
2022-08-20T16:29:10.000Z,100793.31
2022-08-20T16:31:45.180Z,100794.09
2022-08-20T16:34:32.866Z,100785.66
2022-08-20T16:37:07.307Z,100791.69
2022-08-20T16:39:43.783Z,100789.31
2022-08-20T16:42:11.735Z,100785.31
2022-08-20T16:44:43.381Z,100794.56
2022-08-20T16:47:17.239Z,100782.94
2022-08-20T16:49:50.966Z,100780.94
2022-08-20T16:52:18.871Z,100784.94
2022-08-20T16:54:46.681Z,100793.41
2022-08-20T16:57:17.399Z,100787.78
2022-08-20T16:59:57.908Z,100788.19
2022-08-20T17:02:26.414Z,100783.38
2022-08-20T17:04:59.051Z,100782.88
2022-08-20T17:07:33.266Z,100773.22
2022-08-20T17:10:12.650Z,100780.31
2022-08-20T17:12:40.671Z,100779.38
2022-08-20T17:15:09.373Z,100780.09
2022-08-20T17:17:38.292Z,100781.59
2022-08-20T17:20:16.361Z,100783.88
2022-08-20T17:22:50.435Z,100796.53
2022-08-20T17:25:20.615Z,100794.00
2022-08-20T17:27:49.030Z,100795.81
2022-08-20T17:30:24.748Z,100792.88
2022-08-20T17:32:57.325Z,100796.06
2022-08-20T17:35:31.674Z,100797.63
2022-08-20T17:38:03.772Z,100796.72
2022-08-20T17:40:35.792Z,100802.94
2022-08-20T17:43:05.592Z,100803.06
2022-08-20T17:45:38.912Z,100811.72
2022-08-20T17:48:11.722Z,100810.22
2022-08-20T17:50:42.626Z,100803.88
2022-08-20T17:53:21.175Z,100815.06
2022-08-20T17:55:54.349Z,100811.94
2022-08-20T17:58:32.862Z,100814.28
2022-08-20T18:01:02.174Z,100809.56
2022-08-20T18:03:30.003Z,100812.63
2022-08-20T18:06:06.993Z,100815.69
2022-08-20T18:08:41.074Z,100821.97
2022-08-20T18:11:18.216Z,100825.09
2022-08-20T18:14:00.427Z,100817.91
2022-08-20T18:16:31.857Z,100821.03
2022-08-20T18:19:09.651Z,100829.78
2022-08-20T18:22:02.364Z,100822.06
2022-08-20T18:24:38.160Z,100834.78
2022-08-20T18:27:11.590Z,100833.13
2022-08-20T18:29:43.662Z,100834.94
2022-08-20T18:32:30.286Z,100845.91
2022-08-20T18:35:10.435Z,100838.59
2022-08-20T18:37:40.431Z,100837.63
2022-08-20T18:40:16.760Z,100837.28
2022-08-20T18:42:45.367Z,100843.16
2022-08-20T18:45:13.172Z,100850.69
2022-08-20T18:47:45.681Z,100849.00
2022-08-20T18:50:26.014Z,100850.56
2022-08-20T18:53:16.714Z,100848.06
2022-08-20T18:55:46.518Z,100847.41
2022-08-20T18:58:16.930Z,100855.31
2022-08-20T19:00:46.634Z,100848.06
2022-08-20T19:03:20.156Z,100856.44
2022-08-20T19:06:09.563Z,100855.00
2022-08-20T19:08:49.878Z,100851.63
2022-08-20T19:11:45.891Z,100856.34
2022-08-20T19:14:45.001Z,100857.72
2022-08-20T19:17:18.007Z,100857.38
2022-08-20T19:19:45.717Z,100858.41
2022-08-20T19:22:14.130Z,100854.38
2022-08-20T19:24:44.361Z,100851.59
2022-08-20T19:27:12.949Z,100853.06
2022-08-20T19:29:47.167Z,100852.44
2022-08-20T19:32:20.703Z,100845.28
2022-08-20T19:34:52.286Z,100857.84
2022-08-20T19:37:35.398Z,100849.72
2022-08-20T19:40:26.508Z,100859.28
2022-08-20T19:42:59.201Z,100856.41
2022-08-20T19:45:30.953Z,100856.34
2022-08-20T19:48:27.516Z,100863.97
2022-08-20T19:51:07.351Z,100864.97
2022-08-20T19:53:37.045Z,100862.47
2022-08-20T19:56:10.958Z,100867.78
2022-08-20T19:58:39.190Z,100874.13
2022-08-20T20:01:16.394Z,100872.06
2022-08-20T20:03:56.715Z,100877.19
2022-08-20T20:06:25.731Z,100874.41
2022-08-20T20:08:57.461Z,100873.13
2022-08-20T20:11:32.073Z,100876.50
2022-08-20T20:14:05.757Z,100873.47
2022-08-20T20:16:35.288Z,100878.13
2022-08-20T20:19:25.264Z,100877.50
2022-08-20T20:22:05.193Z,100881.25
2022-08-20T20:24:43.279Z,100885.00
2022-08-20T20:27:20.174Z,100878.66
2022-08-20T20:29:51.746Z,100888.16
2022-08-20T20:32:22.644Z,100886.47
2022-08-20T20:34:55.810Z,100885.91
2022-08-20T20:37:46.631Z,100884.09
2022-08-20T20:40:25.261Z,100887.59
2022-08-20T20:43:02.349Z,100879.50
2022-08-20T20:45:34.984Z,100882.56
2022-08-20T20:48:15.715Z,100881.66
2022-08-20T20:50:43.532Z,100879.84
2022-08-20T20:53:11.134Z,100885.03
2022-08-20T20:55:39.852Z,100876.72
2022-08-20T20:58:08.955Z,100880.56
2022-08-20T21:00:36.966Z,100881.72
2022-08-20T21:03:04.495Z,100882.66
2022-08-20T21:05:33.628Z,100878.28
2022-08-20T21:08:03.827Z,100880.25
2022-08-20T21:10:34.929Z,100885.63
2022-08-20T21:13:03.863Z,100878.97
2022-08-20T21:15:34.742Z,100883.66
2022-08-20T21:18:04.680Z,100890.13
2022-08-20T21:20:32.767Z,100882.31
2022-08-20T21:23:00.851Z,100885.97
2022-08-20T21:25:30.572Z,100877.47
2022-08-20T21:27:58.482Z,100880.25
2022-08-20T21:30:27.215Z,100875.28
2022-08-20T21:32:56.514Z,100882.56
2022-08-20T21:35:24.338Z,100876.56
2022-08-20T21:37:52.426Z,100883.28
2022-08-20T21:40:21.807Z,100874.59
2022-08-20T21:42:50.257Z,100879.13
2022-08-20T21:45:20.270Z,100882.22
2022-08-20T21:47:49.114Z,100874.06
2022-08-20T21:50:20.122Z,100884.47
2022-08-20T21:52:55.320Z,100878.34
2022-08-20T21:55:30.117Z,100875.44
2022-08-20T21:57:58.636Z,100875.91
2022-08-20T22:00:47.634Z,100878.44
2022-08-20T22:03:16.444Z,100872.88
2022-08-20T22:05:50.352Z,100875.41
2022-08-20T22:08:19.185Z,100881.53
2022-08-20T22:10:47.189Z,100887.75
2022-08-20T22:13:16.283Z,100884.63
2022-08-20T22:15:44.042Z,100887.38
2022-08-20T22:18:11.606Z,100889.69
2022-08-20T22:20:40.139Z,100890.94
2022-08-20T22:23:09.429Z,100888.06
2022-08-20T22:25:37.336Z,100884.94
2022-08-20T22:28:05.649Z,100875.94
2022-08-20T22:30:33.463Z,100882.03
2022-08-20T22:33:02.004Z,100888.50
2022-08-20T22:35:30.283Z,100892.19
2022-08-20T22:37:59.090Z,100883.81
2022-08-20T22:40:28.300Z,100890.97
2022-08-20T22:42:56.314Z,100887.19
2022-08-20T22:45:24.224Z,100887.06
2022-08-20T22:47:52.043Z,100896.13
2022-08-20T22:50:22.444Z,100890.47
2022-08-20T22:52:50.060Z,100887.19
2022-08-20T22:55:18.065Z,100897.28
2022-08-20T22:57:49.277Z,100890.59
2022-08-20T23:00:19.796Z,100893.50
2022-08-20T23:02:52.700Z,100893.03
2022-08-20T23:05:23.826Z,100898.09
2022-08-20T23:07:54.095Z,100895.56
2022-08-20T23:10:22.657Z,100893.03
2022-08-20T23:12:51.880Z,100891.56
2022-08-20T23:15:20.753Z,100896.63
2022-08-20T23:17:48.568Z,100890.75
2022-08-20T23:20:17.792Z,100889.22
2022-08-20T23:22:45.790Z,100893.03
2022-08-20T23:25:14.098Z,100892.91
2022-08-20T23:27:45.699Z,100881.66
2022-08-20T23:30:18.293Z,100890.19
2022-08-20T23:32:46.238Z,100885.78
2022-08-20T23:35:14.561Z,100877.28
2022-08-20T23:37:44.456Z,100884.56
2022-08-20T23:40:13.686Z,100879.38
2022-08-20T23:42:41.483Z,100880.53
2022-08-20T23:45:10.486Z,100882.94
2022-08-20T23:47:39.797Z,100875.59
2022-08-20T23:50:10.922Z,100880.13
2022-08-20T23:52:38.660Z,100882.47
2022-08-20T23:55:07.672Z,100882.63
2022-08-20T23:57:35.856Z,100873.75
